Time;durP1;ratioP1;P1;durP2;ratioP2;P2;SDS_P1;SDS_P2;PMS_P1;PMS_P2;Temp;Humidity;BMP_temperature;BMP_pressure;BME280_temperature;BME280_humidity;BME280_pressure;Samples;Min_cycle;Max_cycle;Signal;HPM_P1;HPM_P2
2022/02/20 00:00:46;;;;;;;4.43;1.10;;;;;;;;;;5089439;28;20182;-80
2022/02/20 00:03:12;;;;;;;4.67;1.43;;;;;;;;;;5088520;28;20181;-80
2022/02/20 00:05:38;;;;;;;4.43;1.03;;;;;;;;;;5067454;28;20218;-80
2022/02/20 00:08:05;;;;;;;5.30;1.00;;;;;;;;;;5063474;28;20182;-80
2022/02/20 00:10:31;;;;;;;4.47;1.00;;;;;;;;;;5085882;28;20186;-80
2022/02/20 00:13:00;;;;;;;2.57;1.10;;;;;;;;;;5083932;28;20180;-80
2022/02/20 00:15:26;;;;;;;2.73;1.00;;;;;;;;;;5083808;28;20210;-80
2022/02/20 00:17:54;;;;;;;3.50;1.10;;;;;;;;;;5085315;28;20180;-79
2022/02/20 00:20:25;;;;;;;2.17;1.00;;;;;;;;;;5085352;28;20185;-79
2022/02/20 00:22:51;;;;;;;3.40;1.10;;;;;;;;;;5087658;28;20239;-80
2022/02/20 00:25:17;;;;;;;3.90;1.07;;;;;;;;;;5087492;28;20576;-80
2022/02/20 00:27:47;;;;;;;3.00;1.23;;;;;;;;;;5087584;28;20754;-80
2022/02/20 00:30:14;;;;;;;4.50;0.77;;;;;;;;;;5086675;28;20193;-80
2022/02/20 00:32:40;;;;;;;3.13;1.13;;;;;;;;;;5087005;28;20172;-80
2022/02/20 00:35:07;;;;;;;5.20;1.00;;;;;;;;;;5086602;28;20204;-80
2022/02/20 00:37:33;;;;;;;3.87;1.00;;;;;;;;;;5086657;28;20210;-80
2022/02/20 00:40:06;;;;;;;3.33;0.83;;;;;;;;;;5086412;28;20679;-80
2022/02/20 00:42:32;;;;;;;6.40;0.97;;;;;;;;;;5077659;28;20180;-80
2022/02/20 00:44:57;;;;;;;5.33;1.10;;;;;;;;;;5067256;28;20190;-80
2022/02/20 00:47:23;;;;;;;4.60;1.47;;;;;;;;;;5058070;28;20185;-80
2022/02/20 00:49:49;;;;;;;5.47;0.70;;;;;;;;;;5067807;28;20221;-80
2022/02/20 00:52:15;;;;;;;3.73;0.90;;;;;;;;;;5064384;28;20194;-80
2022/02/20 00:54:41;;;;;;;6.50;1.07;;;;;;;;;;5068198;28;20245;-80
2022/02/20 00:57:07;;;;;;;3.93;0.80;;;;;;;;;;5071729;28;20251;-80
2022/02/20 00:59:33;;;;;;;3.13;0.93;;;;;;;;;;5058376;28;20199;-80
2022/02/20 01:01:59;;;;;;;3.67;1.07;;;;;;;;;;5082648;28;20212;-80
2022/02/20 01:04:27;;;;;;;3.43;1.23;;;;;;;;;;5064272;28;20202;-80
2022/02/20 01:06:53;;;;;;;1.83;0.63;;;;;;;;;;5069974;28;20199;-80
2022/02/20 01:09:20;;;;;;;5.17;0.97;;;;;;;;;;5048962;28;20172;-80
2022/02/20 01:11:46;;;;;;;1.93;0.70;;;;;;;;;;5048194;28;20176;-80
2022/02/20 01:14:12;;;;;;;3.50;1.17;;;;;;;;;;5060503;28;20187;-80
2022/02/20 01:16:38;;;;;;;3.47;1.03;;;;;;;;;;5065487;28;20200;-80
2022/02/20 01:19:04;;;;;;;3.80;1.10;;;;;;;;;;5047493;28;20711;-80
2022/02/20 01:21:30;;;;;;;2.43;1.00;;;;;;;;;;5059084;28;20184;-80
2022/02/20 01:23:56;;;;;;;3.40;1.30;;;;;;;;;;5065600;28;20197;-80
2022/02/20 01:26:22;;;;;;;2.27;0.67;;;;;;;;;;5031328;28;20198;-80
2022/02/20 01:28:48;;;;;;;2.87;0.90;;;;;;;;;;5065567;28;20598;-79
2022/02/20 01:31:14;;;;;;;3.37;0.83;;;;;;;;;;5043716;28;20185;-80
2022/02/20 01:33:40;;;;;;;5.40;1.00;;;;;;;;;;5061975;28;20190;-80
2022/02/20 01:36:08;;;;;;;3.37;0.80;;;;;;;;;;5063258;28;20204;-80
2022/02/20 01:38:34;;;;;;;1.63;0.77;;;;;;;;;;5060739;28;20188;-80
2022/02/20 01:41:00;;;;;;;2.13;0.63;;;;;;;;;;5042911;28;20183;-80
2022/02/20 01:43:26;;;;;;;3.23;1.00;;;;;;;;;;5064086;28;20262;-80
2022/02/20 01:45:54;;;;;;;1.27;0.63;;;;;;;;;;5058015;28;20249;-80
2022/02/20 01:48:20;;;;;;;1.97;0.90;;;;;;;;;;5074588;28;20667;-80
2022/02/20 01:50:46;;;;;;;2.13;0.70;;;;;;;;;;5060142;28;20188;-79
2022/02/20 01:53:12;;;;;;;4.37;0.80;;;;;;;;;;5043217;28;20183;-80
2022/02/20 01:55:39;;;;;;;2.17;0.70;;;;;;;;;;5040844;28;20219;-80
2022/02/20 01:58:05;;;;;;;2.33;0.90;;;;;;;;;;5064621;28;20176;-80
2022/02/20 02:00:32;;;;;;;1.67;0.77;;;;;;;;;;5059633;28;20187;-80
2022/02/20 02:02:58;;;;;;;1.80;0.80;;;;;;;;;;5063492;28;20267;-80
2022/02/20 02:05:26;;;;;;;1.80;0.50;;;;;;;;;;5050137;28;20288;-80
2022/02/20 02:07:52;;;;;;;3.23;0.70;;;;;;;;;;5082283;28;20661;-80
2022/02/20 02:10:18;;;;;;;4.07;0.80;;;;;;;;;;5081359;28;20187;-80
2022/02/20 02:12:44;;;;;;;2.50;0.83;;;;;;;;;;5082177;28;20673;-80
2022/02/20 02:15:11;;;;;;;3.43;0.97;;;;;;;;;;5082006;28;20284;-80
2022/02/20 02:17:37;;;;;;;3.10;1.00;;;;;;;;;;5081791;28;20187;-80
2022/02/20 02:20:04;;;;;;;3.50;0.87;;;;;;;;;;5082408;28;20190;-80
2022/02/20 02:22:30;;;;;;;3.50;1.37;;;;;;;;;;5082359;28;20177;-80
2022/02/20 02:24:57;;;;;;;5.37;0.90;;;;;;;;;;5084582;28;20244;-80
2022/02/20 02:27:24;;;;;;;1.83;0.83;;;;;;;;;;5082589;28;20195;-80
2022/02/20 02:29:50;;;;;;;2.43;1.10;;;;;;;;;;5062570;28;20176;-80
2022/02/20 02:32:16;;;;;;;2.30;0.73;;;;;;;;;;5081510;28;20195;-80
2022/02/20 02:34:43;;;;;;;4.00;0.90;;;;;;;;;;5078713;28;20333;-80
2022/02/20 02:37:10;;;;;;;3.93;0.93;;;;;;;;;;5064499;28;20660;-80
2022/02/20 02:39:36;;;;;;;2.43;1.00;;;;;;;;;;5079335;28;20182;-80
2022/02/20 02:42:03;;;;;;;3.87;0.93;;;;;;;;;;5058497;28;20176;-80
2022/02/20 02:44:29;;;;;;;3.87;1.03;;;;;;;;;;5076696;28;20185;-80
2022/02/20 02:46:55;;;;;;;2.43;0.80;;;;;;;;;;5061070;28;20196;-80
2022/02/20 02:49:21;;;;;;;6.60;1.20;;;;;;;;;;5059253;28;20202;-80
2022/02/20 02:51:48;;;;;;;2.93;1.20;;;;;;;;;;5061089;28;20174;-80
2022/02/20 02:54:17;;;;;;;2.63;0.90;;;;;;;;;;5080478;28;20181;-80
2022/02/20 02:56:44;;;;;;;2.67;0.87;;;;;;;;;;5062434;28;20228;-80
2022/02/20 02:59:10;;;;;;;3.70;0.97;;;;;;;;;;5078515;28;20183;-80
2022/02/20 03:01:36;;;;;;;3.13;1.07;;;;;;;;;;5079721;28;20203;-80
2022/02/20 03:04:02;;;;;;;1.97;0.80;;;;;;;;;;5060218;28;20526;-80
2022/02/20 03:06:28;;;;;;;3.13;1.00;;;;;;;;;;5060032;28;20212;-80
2022/02/20 03:08:54;;;;;;;7.03;1.27;;;;;;;;;;5078724;28;20658;-80
2022/02/20 03:11:23;;;;;;;5.80;0.90;;;;;;;;;;5078773;28;20263;-80
2022/02/20 03:13:49;;;;;;;4.33;1.00;;;;;;;;;;5077429;28;20187;-80
2022/02/20 03:16:15;;;;;;;3.23;0.87;;;;;;;;;;5059638;28;20565;-80
2022/02/20 03:18:41;;;;;;;3.70;0.87;;;;;;;;;;5078146;28;20195;-80
2022/02/20 03:21:07;;;;;;;2.93;0.83;;;;;;;;;;5077699;28;20546;-80
2022/02/20 03:23:34;;;;;;;3.70;1.30;;;;;;;;;;5077274;28;20667;-80
2022/02/20 03:26:00;;;;;;;2.00;0.73;;;;;;;;;;5060100;28;20683;-80
2022/02/20 03:28:26;;;;;;;3.40;0.80;;;;;;;;;;5077389;28;20194;-80
2022/02/20 03:30:52;;;;;;;3.40;0.90;;;;;;;;;;5076670;28;20237;-80
2022/02/20 03:33:18;;;;;;;1.63;0.70;;;;;;;;;;5077357;28;20184;-79
2022/02/20 03:35:44;;;;;;;3.77;0.90;;;;;;;;;;5078112;28;20216;-80
2022/02/20 03:38:10;;;;;;;1.90;1.00;;;;;;;;;;5078048;28;20182;-80
2022/02/20 03:40:37;;;;;;;3.87;0.93;;;;;;;;;;5059250;28;20208;-80
2022/02/20 03:43:03;;;;;;;4.40;1.10;;;;;;;;;;5077444;28;20180;-80
2022/02/20 03:45:30;;;;;;;3.47;0.87;;;;;;;;;;5077612;28;20207;-80
2022/02/20 03:47:56;;;;;;;2.97;0.90;;;;;;;;;;5087338;28;20240;-80
2022/02/20 03:50:23;;;;;;;3.33;1.13;;;;;;;;;;5088192;28;20204;-80
2022/02/20 03:52:49;;;;;;;6.33;1.10;;;;;;;;;;5066878;28;20210;-80
2022/02/20 03:55:16;;;;;;;3.20;1.00;;;;;;;;;;5083952;28;20217;-80
2022/02/20 03:57:42;;;;;;;3.83;0.87;;;;;;;;;;5083990;28;20206;-80
2022/02/20 04:00:16;;;;;;;4.27;1.00;;;;;;;;;;5065140;28;20196;-80
2022/02/20 04:02:42;;;;;;;4.77;1.10;;;;;;;;;;5084786;28;20211;-80
2022/02/20 04:05:11;;;;;;;3.90;1.30;;;;;;;;;;5064798;28;20180;-80
2022/02/20 04:07:37;;;;;;;3.77;1.00;;;;;;;;;;5082915;28;20184;-80
2022/02/20 04:10:04;;;;;;;4.47;0.90;;;;;;;;;;5082466;28;20270;-80
2022/02/20 04:12:30;;;;;;;5.40;0.90;;;;;;;;;;5082244;28;20662;-80
2022/02/20 04:14:56;;;;;;;4.33;1.00;;;;;;;;;;5081180;28;20291;-80
2022/02/20 04:17:23;;;;;;;4.63;1.10;;;;;;;;;;5081373;28;20544;-80
2022/02/20 04:19:49;;;;;;;3.03;1.27;;;;;;;;;;5081286;28;20176;-80
2022/02/20 04:22:15;;;;;;;3.43;0.87;;;;;;;;;;5080113;28;20185;-80
2022/02/20 04:24:41;;;;;;;5.67;1.10;;;;;;;;;;5079948;28;20186;-80
2022/02/20 04:27:08;;;;;;;3.87;0.83;;;;;;;;;;5060459;28;20199;-80
2022/02/20 04:29:34;;;;;;;4.10;1.20;;;;;;;;;;5060538;28;20192;-80
2022/02/20 04:32:00;;;;;;;4.87;1.00;;;;;;;;;;5060973;28;20177;-80
2022/02/20 04:34:27;;;;;;;1.90;0.70;;;;;;;;;;5078899;28;20182;-80
2022/02/20 04:36:53;;;;;;;2.83;0.87;;;;;;;;;;5078271;28;20296;-80
2022/02/20 04:39:19;;;;;;;1.83;0.97;;;;;;;;;;5079100;28;20190;-80
2022/02/20 04:41:45;;;;;;;8.57;1.57;;;;;;;;;;5080079;28;20195;-80
2022/02/20 04:44:11;;;;;;;4.47;0.87;;;;;;;;;;5080254;28;20188;-80
2022/02/20 04:46:37;;;;;;;8.03;1.23;;;;;;;;;;5075566;28;20209;-80
2022/02/20 04:49:04;;;;;;;3.93;0.73;;;;;;;;;;5076196;28;20648;-80
2022/02/20 04:51:32;;;;;;;3.33;1.03;;;;;;;;;;5060828;28;20184;-80
2022/02/20 04:53:58;;;;;;;1.40;0.70;;;;;;;;;;5078015;28;20196;-80
2022/02/20 04:56:24;;;;;;;1.50;0.73;;;;;;;;;;5057242;28;20342;-80
2022/02/20 04:58:50;;;;;;;4.57;0.97;;;;;;;;;;5060068;28;20188;-80
2022/02/20 05:01:16;;;;;;;2.03;0.80;;;;;;;;;;5074725;28;20210;-80
2022/02/20 05:03:42;;;;;;;1.43;0.73;;;;;;;;;;5076102;28;20184;-80
2022/02/20 05:06:08;;;;;;;2.90;0.60;;;;;;;;;;5081922;28;20718;-80
2022/02/20 05:08:34;;;;;;;2.83;0.87;;;;;;;;;;5080646;28;20200;-80
2022/02/20 05:11:00;;;;;;;1.63;0.83;;;;;;;;;;5061606;28;20249;-80
2022/02/20 05:13:26;;;;;;;2.50;0.80;;;;;;;;;;5081591;28;20195;-80
2022/02/20 05:15:52;;;;;;;1.10;0.60;;;;;;;;;;5080794;28;20219;-80
2022/02/20 05:18:18;;;;;;;5.13;0.97;;;;;;;;;;5081665;28;20249;-80
2022/02/20 05:20:44;;;;;;;2.43;0.70;;;;;;;;;;5081187;28;20200;-80
2022/02/20 05:23:10;;;;;;;4.67;1.10;;;;;;;;;;5083971;28;20200;-80
2022/02/20 05:25:39;;;;;;;2.50;0.73;;;;;;;;;;5080288;28;20208;-80
2022/02/20 05:28:05;;;;;;;3.07;0.77;;;;;;;;;;5059580;28;20192;-80
2022/02/20 05:30:31;;;;;;;4.77;0.63;;;;;;;;;;5078919;28;20195;-80
2022/02/20 05:32:57;;;;;;;3.77;0.67;;;;;;;;;;5059665;28;20180;-80
2022/02/20 05:35:23;;;;;;;2.23;0.90;;;;;;;;;;5078176;28;20208;-80
2022/02/20 05:37:50;;;;;;;2.93;0.83;;;;;;;;;;5077434;28;20178;-80
2022/02/20 05:40:20;;;;;;;3.10;0.73;;;;;;;;;;5059068;28;20232;-80
2022/02/20 05:42:46;;;;;;;1.83;0.60;;;;;;;;;;5078257;28;20176;-80
2022/02/20 05:45:12;;;;;;;4.10;0.80;;;;;;;;;;5077736;28;20205;-80
2022/02/20 05:47:38;;;;;;;2.53;0.57;;;;;;;;;;5078513;28;20181;-80
2022/02/20 05:50:06;;;;;;;2.03;0.67;;;;;;;;;;5079406;28;20273;-80
2022/02/20 05:52:32;;;;;;;1.63;0.77;;;;;;;;;;5081662;28;20189;-80
2022/02/20 05:54:58;;;;;;;2.63;0.70;;;;;;;;;;5083508;28;20278;-80
2022/02/20 05:57:24;;;;;;;2.57;0.70;;;;;;;;;;5081967;28;20195;-80
2022/02/20 05:59:50;;;;;;;2.10;0.60;;;;;;;;;;5064530;28;20187;-80
2022/02/20 06:02:16;;;;;;;4.03;0.90;;;;;;;;;;5081071;28;20523;-80
2022/02/20 06:04:42;;;;;;;2.43;1.03;;;;;;;;;;5080601;28;20653;-80
2022/02/20 06:07:10;;;;;;;3.27;0.70;;;;;;;;;;5063629;28;20284;-80
2022/02/20 06:09:36;;;;;;;3.57;0.60;;;;;;;;;;5079429;28;20183;-80
2022/02/20 06:12:02;;;;;;;2.67;0.90;;;;;;;;;;5062677;28;20761;-79
2022/02/20 06:14:28;;;;;;;2.43;0.67;;;;;;;;;;5062111;28;20218;-80
2022/02/20 06:16:54;;;;;;;4.17;0.87;;;;;;;;;;5062342;28;20212;-80
2022/02/20 06:19:20;;;;;;;2.20;0.80;;;;;;;;;;5061668;28;20270;-80
2022/02/20 06:21:46;;;;;;;4.07;1.07;;;;;;;;;;5079774;28;20183;-79
2022/02/20 06:24:12;;;;;;;4.10;0.87;;;;;;;;;;5061649;28;20187;-80
2022/02/20 06:26:38;;;;;;;1.77;0.83;;;;;;;;;;5060816;28;20282;-80
2022/02/20 06:29:04;;;;;;;6.07;1.23;;;;;;;;;;5060062;28;20245;-80
2022/02/20 06:31:30;;;;;;;3.03;1.00;;;;;;;;;;5060198;28;20184;-80
2022/02/20 06:33:56;;;;;;;3.67;0.73;;;;;;;;;;5071598;28;20191;-80
2022/02/20 06:36:22;;;;;;;4.57;0.83;;;;;;;;;;5062879;28;20240;-80
2022/02/20 06:38:48;;;;;;;2.70;0.80;;;;;;;;;;5078638;28;20224;-80
2022/02/20 06:41:15;;;;;;;4.73;1.10;;;;;;;;;;5079701;28;20226;-80
2022/02/20 06:43:41;;;;;;;5.13;1.47;;;;;;;;;;5079748;28;20188;-80
2022/02/20 06:46:07;;;;;;;3.70;1.03;;;;;;;;;;5079106;28;20199;-80
2022/02/20 06:48:33;;;;;;;3.57;1.27;;;;;;;;;;5078575;28;20217;-80
2022/02/20 06:50:59;;;;;;;2.53;0.80;;;;;;;;;;5079070;28;20179;-80
2022/02/20 06:53:25;;;;;;;3.23;0.70;;;;;;;;;;5063967;28;20192;-80
2022/02/20 06:55:51;;;;;;;2.03;0.43;;;;;;;;;;5078920;28;20234;-80
2022/02/20 06:58:17;;;;;;;5.00;0.70;;;;;;;;;;5061795;28;20693;-80
2022/02/20 07:00:43;;;;;;;4.23;1.00;;;;;;;;;;5079190;28;20183;-80
2022/02/20 07:03:09;;;;;;;3.83;1.07;;;;;;;;;;5061050;28;20184;-80
2022/02/20 07:05:35;;;;;;;3.83;1.00;;;;;;;;;;5080783;28;20208;-79
2022/02/20 07:08:01;;;;;;;2.70;0.70;;;;;;;;;;5060199;28;20195;-80
2022/02/20 07:10:27;;;;;;;3.97;0.73;;;;;;;;;;5073814;28;20187;-80
2022/02/20 07:12:53;;;;;;;2.27;0.80;;;;;;;;;;5064110;28;20185;-80
2022/02/20 07:15:19;;;;;;;3.47;0.80;;;;;;;;;;5080388;28;20239;-80
2022/02/20 07:17:45;;;;;;;2.70;1.00;;;;;;;;;;5079804;28;20680;-80
2022/02/20 07:20:12;;;;;;;4.57;1.00;;;;;;;;;;5061152;28;20174;-80
2022/02/20 07:22:38;;;;;;;1.90;1.00;;;;;;;;;;5061602;28;20218;-80
2022/02/20 07:25:05;;;;;;;2.63;0.90;;;;;;;;;;5071724;28;20206;-80
2022/02/20 07:27:40;;;;;;;2.37;1.00;;;;;;;;;;5061706;28;20188;-80
2022/02/20 07:30:07;;;;;;;3.83;1.17;;;;;;;;;;5079848;28;21716;-80
2022/02/20 07:32:33;;;;;;;3.07;1.20;;;;;;;;;;5061373;28;20247;-80
2022/02/20 07:34:59;;;;;;;3.60;0.87;;;;;;;;;;5063814;28;20204;-80
2022/02/20 07:37:28;;;;;;;2.00;0.70;;;;;;;;;;5081935;28;20189;-80
2022/02/20 07:39:54;;;;;;;1.80;0.60;;;;;;;;;;5083021;28;20618;-80
2022/02/20 07:42:20;;;;;;;2.37;0.80;;;;;;;;;;5081718;28;20642;-80
2022/02/20 07:44:46;;;;;;;3.00;0.87;;;;;;;;;;5082349;28;20215;-80
2022/02/20 07:47:12;;;;;;;2.67;0.77;;;;;;;;;;5080852;28;20233;-80
2022/02/20 07:49:38;;;;;;;3.60;1.10;;;;;;;;;;5081874;28;20184;-80
2022/02/20 07:52:05;;;;;;;5.43;0.80;;;;;;;;;;5078519;28;20180;-80
2022/02/20 07:54:32;;;;;;;2.27;1.00;;;;;;;;;;5081671;28;20185;-80
2022/02/20 07:56:58;;;;;;;2.40;0.73;;;;;;;;;;5063201;28;20243;-80
2022/02/20 07:59:25;;;;;;;3.07;1.03;;;;;;;;;;5068540;28;20189;-80
2022/02/20 08:01:52;;;;;;;2.93;0.70;;;;;;;;;;5077360;28;20177;-81
2022/02/20 08:04:21;;;;;;;1.90;0.80;;;;;;;;;;5043094;28;20173;-80
2022/02/20 08:06:47;;;;;;;3.20;0.90;;;;;;;;;;5056027;28;20202;-80
2022/02/20 08:09:13;;;;;;;3.30;0.70;;;;;;;;;;5062850;28;20202;-80
2022/02/20 08:11:39;;;;;;;2.27;0.90;;;;;;;;;;5070756;28;20179;-80
2022/02/20 08:14:05;;;;;;;1.83;0.80;;;;;;;;;;5071688;28;20986;-80
2022/02/20 08:16:31;;;;;;;3.60;1.13;;;;;;;;;;5070085;28;20738;-80
2022/02/20 08:18:58;;;;;;;1.67;0.70;;;;;;;;;;5077924;28;20180;-80
2022/02/20 08:21:24;;;;;;;2.63;0.77;;;;;;;;;;5078515;28;20177;-80
2022/02/20 08:23:50;;;;;;;5.20;1.03;;;;;;;;;;5071057;28;20185;-80
2022/02/20 08:26:17;;;;;;;2.83;0.60;;;;;;;;;;5089636;28;20252;-80
2022/02/20 08:28:43;;;;;;;1.63;0.80;;;;;;;;;;5085113;28;20189;-80
2022/02/20 08:31:09;;;;;;;2.63;0.60;;;;;;;;;;5083813;28;20178;-81
2022/02/20 08:33:35;;;;;;;2.40;0.60;;;;;;;;;;5065452;28;20181;-80
2022/02/20 08:36:02;;;;;;;3.33;0.90;;;;;;;;;;5083769;28;20224;-81
2022/02/20 08:38:28;;;;;;;3.23;0.67;;;;;;;;;;5082643;28;20175;-81
2022/02/20 08:40:54;;;;;;;2.47;0.90;;;;;;;;;;5088949;28;20235;-81
2022/02/20 08:43:20;;;;;;;4.77;0.87;;;;;;;;;;5076189;28;20182;-81
2022/02/20 08:45:48;;;;;;;3.07;0.77;;;;;;;;;;5049089;28;20209;-81
2022/02/20 08:48:14;;;;;;;5.70;0.73;;;;;;;;;;5077019;28;20185;-81
2022/02/20 08:50:42;;;;;;;4.50;0.80;;;;;;;;;;5086669;28;20203;-81
2022/02/20 08:53:08;;;;;;;2.90;0.90;;;;;;;;;;5068655;28;20234;-81
2022/02/20 08:55:34;;;;;;;2.77;1.00;;;;;;;;;;5087419;28;20209;-81
2022/02/20 08:58:03;;;;;;;1.77;0.70;;;;;;;;;;5087287;28;20662;-81
2022/02/20 09:00:29;;;;;;;2.43;0.83;;;;;;;;;;5085669;28;20177;-81
2022/02/20 09:02:55;;;;;;;3.57;1.00;;;;;;;;;;5067364;28;20181;-81
2022/02/20 09:05:21;;;;;;;1.90;0.80;;;;;;;;;;5085080;28;20575;-81
2022/02/20 09:07:47;;;;;;;2.57;1.17;;;;;;;;;;5085918;28;20189;-81
2022/02/20 09:10:13;;;;;;;1.90;0.93;;;;;;;;;;5052444;28;20188;-81
2022/02/20 09:12:40;;;;;;;2.20;0.90;;;;;;;;;;5086510;28;20181;-81
2022/02/20 09:15:07;;;;;;;0.97;0.50;;;;;;;;;;5084119;28;20201;-81
2022/02/20 09:17:33;;;;;;;1.87;0.90;;;;;;;;;;5083022;28;20169;-81
2022/02/20 09:20:00;;;;;;;2.83;0.73;;;;;;;;;;5085027;28;20205;-81
2022/02/20 09:22:26;;;;;;;4.20;0.73;;;;;;;;;;5083603;28;20178;-81
2022/02/20 09:24:52;;;;;;;3.40;2.00;;;;;;;;;;5081533;28;20197;-81
2022/02/20 09:27:18;;;;;;;1.63;0.63;;;;;;;;;;5065482;28;20232;-81
2022/02/20 09:29:44;;;;;;;1.87;0.70;;;;;;;;;;5080224;28;20181;-81
2022/02/20 09:32:11;;;;;;;3.03;0.80;;;;;;;;;;5084986;28;20308;-81
2022/02/20 09:34:37;;;;;;;3.20;0.90;;;;;;;;;;5070054;28;20173;-81
2022/02/20 09:37:03;;;;;;;2.00;1.10;;;;;;;;;;5083940;28;20231;-81
2022/02/20 09:39:29;;;;;;;2.73;1.40;;;;;;;;;;5083817;28;20184;-81
2022/02/20 09:41:58;;;;;;;2.70;1.40;;;;;;;;;;5064208;28;20249;-81
2022/02/20 09:44:26;;;;;;;2.60;1.47;;;;;;;;;;5085840;28;20706;-81
2022/02/20 09:46:53;;;;;;;2.70;1.47;;;;;;;;;;5070101;28;20677;-81
2022/02/20 09:49:19;;;;;;;1.80;1.13;;;;;;;;;;5082078;28;20187;-81
2022/02/20 09:51:45;;;;;;;0.87;0.50;;;;;;;;;;5083902;28;20181;-82
2022/02/20 09:54:11;;;;;;;1.47;0.70;;;;;;;;;;5084571;28;20201;-81
2022/02/20 09:56:39;;;;;;;1.20;0.50;;;;;;;;;;5044206;28;20215;-81
2022/02/20 09:59:05;;;;;;;4.67;0.87;;;;;;;;;;5083676;28;20224;-81
2022/02/20 10:01:31;;;;;;;1.00;0.60;;;;;;;;;;5081914;28;20177;-81
2022/02/20 10:03:57;;;;;;;1.13;0.73;;;;;;;;;;5065977;28;20242;-81
2022/02/20 10:06:27;;;;;;;1.23;0.80;;;;;;;;;;5080731;28;20665;-81
2022/02/20 10:08:55;;;;;;;1.03;0.70;;;;;;;;;;5077957;28;20181;-81
2022/02/20 10:11:28;;;;;;;1.97;0.60;;;;;;;;;;5074765;28;20190;-81
2022/02/20 10:14:15;;;;;;;1.80;0.70;;;;;;;;;;5055743;28;20192;-80
2022/02/20 10:16:41;;;;;;;1.87;0.60;;;;;;;;;;5073354;28;20552;-81
2022/02/20 10:19:07;;;;;;;1.63;0.57;;;;;;;;;;5073301;28;20178;-81
2022/02/20 10:21:34;;;;;;;1.13;0.80;;;;;;;;;;5056020;28;20651;-81
2022/02/20 10:24:07;;;;;;;3.07;0.97;;;;;;;;;;5057959;28;20205;-81
2022/02/20 10:26:40;;;;;;;2.17;0.90;;;;;;;;;;5076454;28;20280;-81
2022/02/20 10:29:06;;;;;;;2.97;0.80;;;;;;;;;;5076576;28;20540;-81
2022/02/20 10:31:55;;;;;;;1.17;0.63;;;;;;;;;;5075986;28;20602;-81
2022/02/20 10:34:25;;;;;;;2.77;0.60;;;;;;;;;;5055171;28;20662;-81
2022/02/20 10:36:53;;;;;;;0.77;0.53;;;;;;;;;;5057381;28;20311;-81
2022/02/20 10:39:32;;;;;;;1.13;0.50;;;;;;;;;;5075829;28;20176;-81
2022/02/20 10:42:21;;;;;;;2.07;0.60;;;;;;;;;;5057950;28;20554;-81
2022/02/20 10:44:55;;;;;;;2.00;0.60;;;;;;;;;;5078091;28;20181;-81
2022/02/20 10:47:22;;;;;;;1.57;0.40;;;;;;;;;;5075627;28;20181;-81
2022/02/20 10:49:48;;;;;;;1.20;0.70;;;;;;;;;;5075228;28;20174;-81
2022/02/20 10:52:20;;;;;;;0.80;0.60;;;;;;;;;;5056795;28;20192;-81
2022/02/20 10:55:04;;;;;;;0.33;0.33;;;;;;;;;;5056850;28;20173;-81
2022/02/20 10:57:41;;;;;;;2.17;0.70;;;;;;;;;;5056730;28;20196;-81
2022/02/20 11:00:14;;;;;;;4.13;1.53;;;;;;;;;;5074840;28;20173;-81
2022/02/20 11:02:41;;;;;;;2.43;1.10;;;;;;;;;;5074728;28;20181;-81
2022/02/20 11:05:07;;;;;;;3.73;1.07;;;;;;;;;;5057823;28;20214;-81
2022/02/20 11:07:37;;;;;;;5.40;1.03;;;;;;;;;;5057528;28;20181;-82
2022/02/20 11:10:04;;;;;;;1.50;0.83;;;;;;;;;;5077020;28;20179;-81
2022/02/20 11:12:32;;;;;;;1.33;0.50;;;;;;;;;;5075495;28;20188;-81
2022/02/20 11:14:58;;;;;;;1.30;0.50;;;;;;;;;;5057776;28;20200;-81
2022/02/20 11:17:25;;;;;;;1.03;0.70;;;;;;;;;;5059620;28;20184;-81
2022/02/20 11:19:55;;;;;;;2.10;1.00;;;;;;;;;;5058303;28;20648;-81
2022/02/20 11:22:21;;;;;;;1.17;0.67;;;;;;;;;;5076956;28;20184;-81
2022/02/20 11:24:49;;;;;;;0.87;0.63;;;;;;;;;;5065254;28;20682;-81
2022/02/20 11:27:15;;;;;;;1.23;0.60;;;;;;;;;;5063804;28;20204;-82
2022/02/20 11:29:43;;;;;;;0.47;0.40;;;;;;;;;;5061483;28;20178;-82
2022/02/20 11:32:10;;;;;;;0.60;0.20;;;;;;;;;;5060993;28;20189;-81
2022/02/20 11:34:42;;;;;;;0.93;0.33;;;;;;;;;;5060305;28;20169;-81
2022/02/20 11:37:09;;;;;;;0.97;0.30;;;;;;;;;;5078210;28;20185;-81
2022/02/20 11:39:35;;;;;;;0.77;0.30;;;;;;;;;;5077937;28;20175;-81
2022/02/20 11:42:08;;;;;;;1.50;0.60;;;;;;;;;;5078645;28;20181;-81
2022/02/20 11:44:48;;;;;;;1.23;0.70;;;;;;;;;;5078095;28;20185;-81
2022/02/20 11:47:32;;;;;;;1.90;0.40;;;;;;;;;;5059612;28;20254;-81
2022/02/20 11:50:16;;;;;;;1.70;0.50;;;;;;;;;;5078168;28;20186;-81
2022/02/20 11:52:48;;;;;;;0.80;0.40;;;;;;;;;;5077435;28;20322;-81
2022/02/20 11:55:14;;;;;;;2.00;0.57;;;;;;;;;;5077517;28;20209;-81
2022/02/20 11:57:40;;;;;;;1.83;0.43;;;;;;;;;;5060178;28;20219;-82
2022/02/20 12:00:07;;;;;;;0.97;0.60;;;;;;;;;;5078848;28;20184;-82
2022/02/20 12:02:34;;;;;;;0.87;0.50;;;;;;;;;;5060627;28;20202;-81
2022/02/20 12:05:00;;;;;;;0.80;0.50;;;;;;;;;;5077347;28;20182;-82
2022/02/20 12:07:29;;;;;;;1.47;0.50;;;;;;;;;;5077319;28;20174;-82
2022/02/20 12:10:14;;;;;;;1.03;0.33;;;;;;;;;;5059054;28;20202;-82
2022/02/20 12:12:40;;;;;;;0.20;0.20;;;;;;;;;;5062406;28;20724;-82
2022/02/20 12:15:26;;;;;;;0.60;0.40;;;;;;;;;;5062927;28;20205;-81
2022/02/20 12:18:02;;;;;;;0.57;0.30;;;;;;;;;;5062849;28;20177;-81
2022/02/20 12:20:49;;;;;;;0.93;0.40;;;;;;;;;;5083758;28;20179;-81
2022/02/20 12:23:27;;;;;;;0.93;0.27;;;;;;;;;;5063202;28;20178;-81
2022/02/20 12:25:59;;;;;;;0.97;0.47;;;;;;;;;;5082109;28;20222;-81
2022/02/20 12:28:32;;;;;;;0.77;0.40;;;;;;;;;;5081532;28;20663;-82
2022/02/20 12:31:03;;;;;;;1.10;0.60;;;;;;;;;;5081753;28;20190;-82
2022/02/20 12:33:30;;;;;;;2.00;0.50;;;;;;;;;;5064258;28;20181;-82
2022/02/20 12:35:59;;;;;;;0.40;0.40;;;;;;;;;;5081102;28;20207;-82
2022/02/20 12:38:25;;;;;;;0.90;0.40;;;;;;;;;;5080878;28;20183;-80
2022/02/20 12:40:52;;;;;;;0.97;0.40;;;;;;;;;;5080418;28;20190;-82
2022/02/20 12:43:18;;;;;;;1.87;0.37;;;;;;;;;;5061027;28;20173;-82
2022/02/20 12:45:45;;;;;;;0.50;0.50;;;;;;;;;;5066206;28;20687;-82
2022/02/20 12:48:13;;;;;;;1.37;0.40;;;;;;;;;;5077005;28;20190;-82
2022/02/20 12:50:41;;;;;;;0.80;0.30;;;;;;;;;;5079043;28;20184;-82
2022/02/20 12:53:07;;;;;;;1.53;0.60;;;;;;;;;;5075590;28;20218;-82
2022/02/20 12:55:34;;;;;;;0.70;0.33;;;;;;;;;;5080987;28;20625;-82
2022/02/20 12:58:01;;;;;;;1.00;0.37;;;;;;;;;;5070361;28;20652;-82
2022/02/20 13:00:28;;;;;;;0.63;0.30;;;;;;;;;;5046962;28;20181;-81
2022/02/20 13:03:00;;;;;;;0.97;0.40;;;;;;;;;;5041475;28;20186;-81
2022/02/20 13:05:34;;;;;;;0.40;0.30;;;;;;;;;;5075815;28;20552;-81
2022/02/20 13:08:04;;;;;;;0.80;0.40;;;;;;;;;;5060473;28;20186;-82
2022/02/20 13:10:37;;;;;;;0.93;0.40;;;;;;;;;;5078784;28;20177;-82
2022/02/20 13:13:07;;;;;;;1.17;0.40;;;;;;;;;;5061542;28;20191;-82
2022/02/20 13:15:37;;;;;;;0.73;0.50;;;;;;;;;;5081424;28;20214;-81
2022/02/20 13:18:07;;;;;;;1.07;0.40;;;;;;;;;;5073013;28;20236;-81
2022/02/20 13:20:35;;;;;;;0.83;0.43;;;;;;;;;;5071017;28;20192;-82
2022/02/20 13:23:20;;;;;;;0.30;0.20;;;;;;;;;;5075942;28;20183;-81
2022/02/20 13:25:47;;;;;;;1.13;0.30;;;;;;;;;;5075378;28;20294;-82
2022/02/20 13:28:14;;;;;;;0.40;0.40;;;;;;;;;;5063289;28;20536;-81
2022/02/20 13:30:41;;;;;;;0.73;0.50;;;;;;;;;;5062502;28;20195;-81
2022/02/20 13:33:07;;;;;;;2.20;0.40;;;;;;;;;;5076537;28;20172;-82
2022/02/20 13:35:34;;;;;;;1.70;0.50;;;;;;;;;;5064356;28;20350;-81
2022/02/20 13:38:02;;;;;;;0.60;0.23;;;;;;;;;;5059975;28;20267;-82
2022/02/20 13:40:28;;;;;;;0.63;0.40;;;;;;;;;;5062675;28;20721;-82
2022/02/20 13:43:07;;;;;;;1.03;0.30;;;;;;;;;;5075824;28;20207;-81
2022/02/20 13:45:39;;;;;;;0.67;0.30;;;;;;;;;;5081614;28;20230;-81
2022/02/20 13:48:25;;;;;;;1.13;0.50;;;;;;;;;;5074775;28;20187;-82
2022/02/20 13:51:08;;;;;;;1.10;0.50;;;;;;;;;;5056051;28;20559;-82
2022/02/20 13:53:44;;;;;;;0.37;0.30;;;;;;;;;;5073372;28;20189;-81
2022/02/20 13:56:10;;;;;;;0.40;0.40;;;;;;;;;;5070248;28;20219;-81
2022/02/20 13:58:36;;;;;;;2.70;0.50;;;;;;;;;;5072260;28;20519;-81
2022/02/20 14:01:03;;;;;;;0.77;0.30;;;;;;;;;;5065208;28;20690;-81
2022/02/20 14:03:29;;;;;;;0.93;0.60;;;;;;;;;;5076902;28;20194;-81
2022/02/20 14:05:55;;;;;;;0.50;0.40;;;;;;;;;;5079183;28;20208;-81
2022/02/20 14:08:22;;;;;;;0.70;0.50;;;;;;;;;;5071619;28;20188;-81
2022/02/20 14:10:54;;;;;;;0.40;0.30;;;;;;;;;;5076494;28;20194;-82
2022/02/20 14:13:20;;;;;;;1.50;0.40;;;;;;;;;;5060694;28;20211;-81
2022/02/20 14:15:57;;;;;;;0.40;0.40;;;;;;;;;;5054562;28;20214;-82
2022/02/20 14:18:23;;;;;;;0.63;0.23;;;;;;;;;;5075116;28;20217;-81
2022/02/20 14:20:51;;;;;;;0.20;0.20;;;;;;;;;;5076517;28;20184;-81
2022/02/20 14:23:21;;;;;;;0.40;0.20;;;;;;;;;;5072839;28;20181;-81
2022/02/20 14:25:51;;;;;;;1.40;0.30;;;;;;;;;;5083597;28;20206;-81
2022/02/20 14:28:18;;;;;;;0.20;0.20;;;;;;;;;;5082616;28;20260;-81
2022/02/20 14:30:44;;;;;;;0.50;0.30;;;;;;;;;;5075985;28;20186;-81
2022/02/20 14:33:15;;;;;;;1.00;0.40;;;;;;;;;;5062499;28;20616;-81
2022/02/20 14:35:44;;;;;;;0.40;0.27;;;;;;;;;;5070438;28;20648;-82
2022/02/20 14:38:11;;;;;;;0.53;0.30;;;;;;;;;;5062329;28;20198;-81
2022/02/20 14:40:37;;;;;;;0.90;0.50;;;;;;;;;;5075715;28;20184;-81
2022/02/20 14:43:03;;;;;;;1.60;0.67;;;;;;;;;;5076206;28;20182;-81
2022/02/20 14:45:31;;;;;;;0.33;0.30;;;;;;;;;;5062060;28;20240;-81